Victorville, CA

3:24 PM PST on January 23, 2017 (GMT -0800)
Southern California Logistics

Weather History for KVCV - July, 2013

Change the Weather History Date:

Saturday, July 13, 2013

  Actual Average (KSBD) Record (KSBD)
Temperature  
Mean Temperature 82 °F -  
Max Temperature 98 °F 95 °F 100 °F (2016)
Min Temperature 66 °F 61 °F 62 °F (2011)
Cooling Degree Days 17    
Growing Degree Days 32 (Base 50)    
Moisture  
Dew Point 36 °F    
Average Humidity 20    
Maximum Humidity 40    
Minimum Humidity 10    
Precipitation  
Precipitation 0.00 in - - ()
Sea Level Pressure  
Sea Level Pressure 29.99 in    
Wind  
Wind Speed 6 mph (SW)    
Max Wind Speed 18 mph    
Max Gust Speed 24 mph    
Visibility 10 miles    
Events      
Averages and records for this station are not official NWS values.
T = Trace of Precipitation, MM = Missing Value Source: NWS Daily Summary

Daily Weather History Graph

Daily Weather History Graph

Search for Another Location

Airport or City:

Trip Planner

Search our weather history database for the weather conditions in past years. The results will help you decide how hot, cold, wet, or windy it might be!

Date:

Astronomy

Jul. 13, 2013 Rise Set
Actual Time 5:46 AM PDT 8:03 PM PDT
Civil Twilight 5:17 AM PDT 8:32 PM PDT
Nautical Twilight 4:42 AM PDT 9:07 PM PDT
Astronomical Twilight 4:04 AM PDT 9:46 PM PDT
Moon 10:52 AM PDT (7/13) 11:03 PM PDT (7/13)
Length of Visible Light 15h 14m
Length of Day
14h 16m
Waxing Crescent, 26% of the Moon is Illuminated
Jul 13
Waxing Crescent
Jul 15
First Quarter
Jul 22
Full
Jul 29
Last Quarter
Aug 6
New

Hourly Weather History & Observations

Time (PDT) Temp. Dew Point Humidity Pressure Visibility Wind Dir Wind Speed Gust Speed Precip Events Conditions
12:15 AM 73.4 °F 42.8 °F 33% 29.99 in 10.0 mi South 4.6 mph - N/A   Clear
12:35 AM 71.6 °F 42.8 °F 35% 29.99 in 10.0 mi South 3.5 mph - N/A   Clear
12:55 AM 73.4 °F 42.8 °F 33% 29.99 in 10.0 mi SSE 6.9 mph - N/A   Clear
1:15 AM 71.6 °F 42.8 °F 35% 29.99 in 10.0 mi SSE 5.8 mph - N/A   Clear
1:35 AM 71.6 °F 42.8 °F 35% 29.99 in 10.0 mi South 6.9 mph - N/A   Clear
1:55 AM 69.8 °F 42.8 °F 38% 29.99 in 10.0 mi South 5.8 mph - N/A   Clear
2:15 AM 69.8 °F 39.2 °F 33% 29.99 in 10.0 mi South 4.6 mph - N/A   Clear
2:35 AM 71.6 °F 39.2 °F 31% 29.99 in 10.0 mi South 5.8 mph - N/A   Clear
2:55 AM 71.6 °F 42.8 °F 35% 29.99 in 10.0 mi SSE 8.1 mph - N/A   Clear
3:15 AM 71.6 °F 41.0 °F 33% 29.99 in 10.0 mi South 3.5 mph - N/A   Clear
3:35 AM 71.6 °F 33.8 °F 25% 29.99 in 10.0 mi South 5.8 mph - N/A   Clear
3:55 AM 69.8 °F 37.4 °F 31% 29.99 in 10.0 mi South 6.9 mph - N/A   Clear
4:15 AM 69.8 °F 39.2 °F 33% 29.99 in 10.0 mi SSE 8.1 mph - N/A   Clear
4:35 AM 69.8 °F 41.0 °F 35% 29.99 in 10.0 mi South 8.1 mph - N/A   Clear
4:55 AM 66.2 °F 35.6 °F 32% 29.99 in 10.0 mi South 6.9 mph - N/A   Clear
5:15 AM 66.2 °F 33.8 °F 30% 30.00 in 10.0 mi South 5.8 mph - N/A   Clear
5:35 AM 68.0 °F 35.6 °F 30% 30.00 in 10.0 mi SSE 8.1 mph - N/A   Clear
5:55 AM 69.8 °F 42.8 °F 38% 30.01 in 10.0 mi SSE 9.2 mph - N/A   Clear
6:15 AM 68.0 °F 42.8 °F 40% 30.01 in 10.0 mi SSE 8.1 mph - N/A   Clear
6:35 AM 69.8 °F 41.0 °F 35% 30.01 in 10.0 mi SSE 8.1 mph - N/A   Clear
6:55 AM 71.6 °F 39.2 °F 31% 30.02 in 10.0 mi South 8.1 mph - N/A   Clear
7:15 AM 71.6 °F 37.4 °F 29% 30.02 in 10.0 mi South 5.8 mph - N/A   Clear
7:35 AM 73.4 °F 35.6 °F 25% 30.02 in 10.0 mi South 5.8 mph - N/A   Clear
7:55 AM 77.0 °F 33.8 °F 21% 30.02 in 7.0 mi South 4.6 mph - N/A   Clear
8:15 AM 78.8 °F 37.4 °F 23% 30.03 in 10.0 mi SE 6.9 mph - N/A   Clear
8:35 AM 80.6 °F 37.4 °F 21% 30.03 in 10.0 mi SSE 4.6 mph - N/A   Clear
8:55 AM 82.4 °F 37.4 °F 20% 30.03 in 10.0 mi SSW 3.5 mph - N/A   Clear
9:15 AM 84.2 °F 37.4 °F 19% 30.03 in 10.0 mi Calm Calm - N/A   Clear
9:35 AM 84.2 °F 37.4 °F 19% 30.03 in 10.0 mi WSW 5.8 mph - N/A   Clear
9:55 AM 86.0 °F 37.4 °F 18% 30.03 in 10.0 mi West 5.8 mph - N/A   Clear
10:15 AM 87.8 °F 35.6 °F 16% 30.03 in 10.0 mi WSW 4.6 mph - N/A   Scattered Clouds
10:35 AM 89.6 °F 33.8 °F 14% 30.03 in 10.0 mi Calm Calm - N/A   Scattered Clouds
10:55 AM 89.6 °F 33.8 °F 14% 30.03 in 10.0 mi Calm Calm - N/A   Scattered Clouds
11:15 AM 93.2 °F 33.8 °F 12% 30.02 in 10.0 mi NW 8.1 mph 17.3 mph N/A   Scattered Clouds
11:35 AM 93.2 °F 33.8 °F 12% 30.02 in 10.0 mi NNW 8.1 mph - N/A   Scattered Clouds
11:55 AM 93.2 °F 33.8 °F 12% 30.02 in 10.0 mi North 6.9 mph - N/A   Scattered Clouds
12:15 PM 93.2 °F 33.8 °F 12% 30.02 in 10.0 mi Calm Calm - N/A   Scattered Clouds
12:35 PM 95.0 °F 33.8 °F 12% 30.00 in 10.0 mi NNE 6.9 mph - N/A   Clear
12:55 PM 96.8 °F 33.8 °F 11% 30.00 in 10.0 mi SW 3.5 mph - N/A   Scattered Clouds
1:15 PM 96.8 °F 33.8 °F 11% 29.99 in 7.0 mi WNW 8.1 mph - N/A   Scattered Clouds
1:35 PM 96.8 °F 33.8 °F 11% 29.99 in 7.0 mi NE 6.9 mph - N/A   Scattered Clouds
1:55 PM 95.0 °F 35.6 °F 12% 29.99 in 10.0 mi Calm Calm - N/A   Scattered Clouds
2:15 PM 96.8 °F 35.6 °F 12% 29.98 in 7.0 mi NW 5.8 mph - N/A   Scattered Clouds
2:35 PM 96.8 °F 35.6 °F 12% 29.98 in 10.0 mi Calm Calm - N/A   Scattered Clouds
2:55 PM 96.8 °F 35.6 °F 12% 29.97 in 10.0 mi NW 4.6 mph - N/A   Scattered Clouds
3:15 PM 98.6 °F 35.6 °F 11% 29.96 in 10.0 mi WNW 8.1 mph - N/A   Clear
3:35 PM 98.6 °F 33.8 °F 10% 29.95 in 10.0 mi North 3.5 mph - N/A   Clear
3:55 PM 98.6 °F 33.8 °F 10% 29.94 in 10.0 mi West 3.5 mph - N/A   Clear
4:15 PM 98.6 °F 33.8 °F 10% 29.93 in 10.0 mi South 4.6 mph - N/A   Clear
4:35 PM 96.8 °F 33.8 °F 11% 29.93 in 10.0 mi NNW 4.6 mph - N/A   Clear
4:55 PM 96.8 °F 33.8 °F 11% 29.92 in 10.0 mi Calm Calm - N/A   Clear
5:15 PM 96.8 °F 33.8 °F 11% 29.92 in 10.0 mi West 8.1 mph - N/A   Clear
5:35 PM 98.6 °F 35.6 °F 11% 29.92 in 10.0 mi West 10.4 mph - N/A   Clear
5:55 PM 96.8 °F 33.8 °F 11% 29.91 in 10.0 mi WNW 4.6 mph - N/A   Clear
6:15 PM 96.8 °F 33.8 °F 11% 29.92 in 10.0 mi West 4.6 mph - N/A   Clear
6:35 PM 96.8 °F 37.4 °F 13% 29.92 in 10.0 mi West 12.7 mph 17.3 mph N/A   Scattered Clouds
6:55 PM 96.8 °F 35.6 °F 12% 29.92 in 10.0 mi West 13.8 mph 19.6 mph N/A   Clear
7:15 PM 93.2 °F 35.6 °F 13% 29.93 in 10.0 mi West 16.1 mph 19.6 mph N/A   Clear
7:35 PM 93.2 °F 35.6 °F 13% 29.93 in 10.0 mi West 18.4 mph 24.2 mph N/A   Clear
7:55 PM 91.4 °F 33.8 °F 13% 29.94 in 10.0 mi West 17.3 mph - N/A   Clear
8:15 PM 89.6 °F 35.6 °F 15% 29.94 in 10.0 mi West 15.0 mph - N/A   Clear
8:35 PM 89.6 °F 35.6 °F 15% 29.95 in 10.0 mi West 12.7 mph - N/A   Clear
8:55 PM 87.8 °F 35.6 °F 16% 29.96 in 10.0 mi West 13.8 mph - N/A   Clear
9:15 PM 86.0 °F 35.6 °F 17% 29.97 in 10.0 mi West 11.5 mph - N/A   Clear
9:35 PM 84.2 °F 33.8 °F 16% 29.98 in 10.0 mi West 8.1 mph - N/A   Clear
9:55 PM 84.2 °F 33.8 °F 16% 29.99 in 10.0 mi West 6.9 mph - N/A   Clear
10:15 PM 84.2 °F 33.8 °F 16% 30.00 in 10.0 mi West 3.5 mph - N/A   Clear
10:35 PM 82.4 °F 33.8 °F 17% 30.01 in 10.0 mi West 4.6 mph - N/A   Clear
10:55 PM 80.6 °F 33.8 °F 18% 30.01 in 10.0 mi WSW 5.8 mph - N/A   Clear
11:15 PM 80.6 °F 33.8 °F 18% 30.01 in 10.0 mi West 6.9 mph - N/A   Clear
11:35 PM 80.6 °F 35.6 °F 20% 30.01 in 10.0 mi WSW 8.1 mph - N/A   Clear
11:55 PM 78.8 °F 35.6 °F 21% 30.01 in 10.0 mi WSW 8.1 mph - N/A   Clear